sensor_id;sensor_type;location;lat;lon;timestamp;P1;durP1;ratioP1;P2;durP2;ratioP2
16403;SDS011;8311;50.158;8.642;2024-01-27T00:01:03;8.05;;;1.80;;
16403;SDS011;8311;50.158;8.642;2024-01-27T00:03:56;5.82;;;2.00;;
16403;SDS011;8311;50.158;8.642;2024-01-27T00:06:49;10.57;;;2.78;;
16403;SDS011;8311;50.158;8.642;2024-01-27T00:09:42;6.55;;;2.20;;
16403;SDS011;8311;50.158;8.642;2024-01-27T00:12:35;8.30;;;2.35;;
16403;SDS011;8311;50.158;8.642;2024-01-27T00:15:29;9.80;;;2.53;;
16403;SDS011;8311;50.158;8.642;2024-01-27T00:18:23;5.05;;;1.95;;
16403;SDS011;8311;50.158;8.642;2024-01-27T00:21:17;5.07;;;2.05;;
16403;SDS011;8311;50.158;8.642;2024-01-27T00:24:10;8.93;;;2.42;;
16403;SDS011;8311;50.158;8.642;2024-01-27T00:27:05;11.20;;;2.70;;
16403;SDS011;8311;50.158;8.642;2024-01-27T00:29:58;8.05;;;2.08;;
16403;SDS011;8311;50.158;8.642;2024-01-27T00:32:52;5.75;;;2.10;;
16403;SDS011;8311;50.158;8.642;2024-01-27T00:35:48;7.57;;;2.28;;
16403;SDS011;8311;50.158;8.642;2024-01-27T00:38:41;5.18;;;1.77;;
16403;SDS011;8311;50.158;8.642;2024-01-27T00:41:34;7.68;;;2.40;;
16403;SDS011;8311;50.158;8.642;2024-01-27T00:44:27;5.25;;;2.13;;
16403;SDS011;8311;50.158;8.642;2024-01-27T00:47:21;6.07;;;1.85;;
16403;SDS011;8311;50.158;8.642;2024-01-27T00:50:15;6.53;;;2.10;;
16403;SDS011;8311;50.158;8.642;2024-01-27T00:53:09;5.63;;;1.70;;
16403;SDS011;8311;50.158;8.642;2024-01-27T00:56:04;5.18;;;2.00;;
16403;SDS011;8311;50.158;8.642;2024-01-27T00:58:57;3.47;;;1.50;;
16403;SDS011;8311;50.158;8.642;2024-01-27T01:01:50;5.15;;;1.77;;
16403;SDS011;8311;50.158;8.642;2024-01-27T01:04:43;5.35;;;2.05;;
16403;SDS011;8311;50.158;8.642;2024-01-27T01:07:36;5.90;;;1.90;;
16403;SDS011;8311;50.158;8.642;2024-01-27T01:10:31;4.88;;;1.88;;
16403;SDS011;8311;50.158;8.642;2024-01-27T01:13:24;4.50;;;1.70;;
16403;SDS011;8311;50.158;8.642;2024-01-27T01:16:17;5.82;;;1.65;;
16403;SDS011;8311;50.158;8.642;2024-01-27T01:19:11;7.20;;;2.03;;
16403;SDS011;8311;50.158;8.642;2024-01-27T01:25:50;4.28;;;1.77;;
16403;SDS011;8311;50.158;8.642;2024-01-27T01:28:43;3.50;;;1.65;;
16403;SDS011;8311;50.158;8.642;2024-01-27T01:31:36;5.38;;;1.77;;
16403;SDS011;8311;50.158;8.642;2024-01-27T01:34:29;6.13;;;1.73;;
16403;SDS011;8311;50.158;8.642;2024-01-27T01:37:23;4.07;;;1.60;;
16403;SDS011;8311;50.158;8.642;2024-01-27T01:40:16;4.80;;;1.70;;
16403;SDS011;8311;50.158;8.642;2024-01-27T01:43:12;3.63;;;1.70;;
16403;SDS011;8311;50.158;8.642;2024-01-27T01:46:05;5.35;;;1.65;;
16403;SDS011;8311;50.158;8.642;2024-01-27T01:52:42;3.72;;;1.83;;
16403;SDS011;8311;50.158;8.642;2024-01-27T01:55:36;4.25;;;1.90;;
16403;SDS011;8311;50.158;8.642;2024-01-27T01:58:30;8.10;;;2.17;;
16403;SDS011;8311;50.158;8.642;2024-01-27T02:01:25;4.50;;;1.58;;
16403;SDS011;8311;50.158;8.642;2024-01-27T02:08:03;4.63;;;2.10;;
16403;SDS011;8311;50.158;8.642;2024-01-27T02:10:56;5.18;;;1.85;;
16403;SDS011;8311;50.158;8.642;2024-01-27T02:13:54;6.00;;;1.95;;
16403;SDS011;8311;50.158;8.642;2024-01-27T02:16:47;6.45;;;1.88;;
16403;SDS011;8311;50.158;8.642;2024-01-27T02:19:40;3.30;;;1.55;;
16403;SDS011;8311;50.158;8.642;2024-01-27T02:22:34;4.07;;;1.35;;
16403;SDS011;8311;50.158;8.642;2024-01-27T02:25:30;3.80;;;1.65;;
16403;SDS011;8311;50.158;8.642;2024-01-27T02:28:23;5.55;;;1.75;;
16403;SDS011;8311;50.158;8.642;2024-01-27T02:31:17;6.45;;;1.85;;
16403;SDS011;8311;50.158;8.642;2024-01-27T02:34:10;4.38;;;1.60;;
16403;SDS011;8311;50.158;8.642;2024-01-27T02:40:49;4.60;;;1.77;;
16403;SDS011;8311;50.158;8.642;2024-01-27T02:43:43;4.35;;;1.73;;
16403;SDS011;8311;50.158;8.642;2024-01-27T02:46:37;5.80;;;1.75;;
16403;SDS011;8311;50.158;8.642;2024-01-27T02:49:30;4.50;;;1.48;;
16403;SDS011;8311;50.158;8.642;2024-01-27T02:52:23;6.60;;;1.92;;
16403;SDS011;8311;50.158;8.642;2024-01-27T02:55:16;6.43;;;1.88;;
16403;SDS011;8311;50.158;8.642;2024-01-27T02:58:11;3.80;;;1.45;;
16403;SDS011;8311;50.158;8.642;2024-01-27T03:01:03;3.13;;;1.20;;
16403;SDS011;8311;50.158;8.642;2024-01-27T03:03:56;4.18;;;1.50;;
16403;SDS011;8311;50.158;8.642;2024-01-27T03:06:50;4.82;;;1.60;;
16403;SDS011;8311;50.158;8.642;2024-01-27T03:09:43;3.22;;;1.50;;
16403;SDS011;8311;50.158;8.642;2024-01-27T03:12:36;2.88;;;1.38;;
16403;SDS011;8311;50.158;8.642;2024-01-27T03:19:15;4.95;;;1.73;;
16403;SDS011;8311;50.158;8.642;2024-01-27T03:22:08;7.63;;;1.77;;
16403;SDS011;8311;50.158;8.642;2024-01-27T03:25:03;5.72;;;1.40;;
16403;SDS011;8311;50.158;8.642;2024-01-27T03:27:56;4.55;;;1.65;;
16403;SDS011;8311;50.158;8.642;2024-01-27T03:30:50;5.03;;;1.50;;
16403;SDS011;8311;50.158;8.642;2024-01-27T03:33:42;4.57;;;1.50;;
16403;SDS011;8311;50.158;8.642;2024-01-27T03:40:22;3.70;;;1.60;;
16403;SDS011;8311;50.158;8.642;2024-01-27T03:43:16;3.50;;;1.50;;
16403;SDS011;8311;50.158;8.642;2024-01-27T03:46:09;6.60;;;1.90;;
16403;SDS011;8311;50.158;8.642;2024-01-27T03:49:02;6.93;;;1.80;;
16403;SDS011;8311;50.158;8.642;2024-01-27T03:51:56;7.15;;;1.73;;
16403;SDS011;8311;50.158;8.642;2024-01-27T03:54:49;8.70;;;1.98;;
16403;SDS011;8311;50.158;8.642;2024-01-27T03:57:43;9.45;;;2.03;;
16403;SDS011;8311;50.158;8.642;2024-01-27T04:00:36;4.75;;;1.70;;
16403;SDS011;8311;50.158;8.642;2024-01-27T04:07:15;11.65;;;2.60;;
16403;SDS011;8311;50.158;8.642;2024-01-27T04:10:09;12.35;;;2.47;;
16403;SDS011;8311;50.158;8.642;2024-01-27T04:13:04;13.43;;;2.15;;
16403;SDS011;8311;50.158;8.642;2024-01-27T04:15:57;8.85;;;2.45;;
16403;SDS011;8311;50.158;8.642;2024-01-27T04:18:52;15.50;;;3.03;;
16403;SDS011;8311;50.158;8.642;2024-01-27T04:21:45;14.20;;;2.35;;
16403;SDS011;8311;50.158;8.642;2024-01-27T04:24:38;17.95;;;3.10;;
16403;SDS011;8311;50.158;8.642;2024-01-27T04:27:31;15.57;;;2.72;;
16403;SDS011;8311;50.158;8.642;2024-01-27T04:30:30;13.15;;;3.00;;
16403;SDS011;8311;50.158;8.642;2024-01-27T04:33:23;13.38;;;2.50;;
16403;SDS011;8311;50.158;8.642;2024-01-27T04:36:24;10.73;;;2.25;;
16403;SDS011;8311;50.158;8.642;2024-01-27T04:39:18;8.55;;;1.98;;
16403;SDS011;8311;50.158;8.642;2024-01-27T04:42:11;9.98;;;2.35;;
16403;SDS011;8311;50.158;8.642;2024-01-27T04:45:04;8.45;;;2.15;;
16403;SDS011;8311;50.158;8.642;2024-01-27T04:48:00;9.68;;;2.35;;
16403;SDS011;8311;50.158;8.642;2024-01-27T04:50:53;9.05;;;2.63;;
16403;SDS011;8311;50.158;8.642;2024-01-27T04:53:48;9.88;;;2.47;;
16403;SDS011;8311;50.158;8.642;2024-01-27T04:56:41;9.30;;;2.35;;
16403;SDS011;8311;50.158;8.642;2024-01-27T04:59:34;8.05;;;2.35;;
16403;SDS011;8311;50.158;8.642;2024-01-27T05:02:27;9.30;;;2.45;;
16403;SDS011;8311;50.158;8.642;2024-01-27T05:05:22;7.53;;;2.08;;
16403;SDS011;8311;50.158;8.642;2024-01-27T05:08:16;6.93;;;2.35;;
16403;SDS011;8311;50.158;8.642;2024-01-27T05:11:09;6.22;;;1.98;;
16403;SDS011;8311;50.158;8.642;2024-01-27T05:14:02;8.70;;;2.00;;
16403;SDS011;8311;50.158;8.642;2024-01-27T05:16:56;8.40;;;2.08;;
16403;SDS011;8311;50.158;8.642;2024-01-27T05:19:49;7.25;;;1.73;;
16403;SDS011;8311;50.158;8.642;2024-01-27T05:22:44;7.97;;;2.33;;
16403;SDS011;8311;50.158;8.642;2024-01-27T05:25:36;6.18;;;1.98;;
16403;SDS011;8311;50.158;8.642;2024-01-27T05:28:31;8.00;;;2.03;;
16403;SDS011;8311;50.158;8.642;2024-01-27T05:31:25;5.97;;;1.98;;
16403;SDS011;8311;50.158;8.642;2024-01-27T05:34:19;8.10;;;2.35;;
16403;SDS011;8311;50.158;8.642;2024-01-27T05:40:57;6.53;;;1.83;;
16403;SDS011;8311;50.158;8.642;2024-01-27T05:43:50;7.47;;;2.15;;
16403;SDS011;8311;50.158;8.642;2024-01-27T05:46:44;7.28;;;1.98;;
16403;SDS011;8311;50.158;8.642;2024-01-27T05:49:38;8.10;;;2.13;;
16403;SDS011;8311;50.158;8.642;2024-01-27T05:52:32;8.02;;;2.08;;
16403;SDS011;8311;50.158;8.642;2024-01-27T05:55:26;11.73;;;2.35;;
16403;SDS011;8311;50.158;8.642;2024-01-27T05:58:20;11.32;;;2.25;;
16403;SDS011;8311;50.158;8.642;2024-01-27T06:01:13;12.70;;;2.60;;
16403;SDS011;8311;50.158;8.642;2024-01-27T06:04:06;8.40;;;2.45;;
16403;SDS011;8311;50.158;8.642;2024-01-27T06:07:00;7.30;;;2.15;;
16403;SDS011;8311;50.158;8.642;2024-01-27T06:09:52;9.75;;;2.70;;
16403;SDS011;8311;50.158;8.642;2024-01-27T06:12:45;11.27;;;2.40;;
16403;SDS011;8311;50.158;8.642;2024-01-27T06:15:40;12.20;;;2.50;;
16403;SDS011;8311;50.158;8.642;2024-01-27T06:18:34;10.30;;;2.47;;
16403;SDS011;8311;50.158;8.642;2024-01-27T06:21:27;7.93;;;2.17;;
16403;SDS011;8311;50.158;8.642;2024-01-27T06:24:20;7.35;;;2.33;;
16403;SDS011;8311;50.158;8.642;2024-01-27T06:27:13;8.30;;;2.53;;
16403;SDS011;8311;50.158;8.642;2024-01-27T06:30:08;11.77;;;2.40;;
16403;SDS011;8311;50.158;8.642;2024-01-27T06:33:04;7.15;;;2.17;;
16403;SDS011;8311;50.158;8.642;2024-01-27T06:39:40;13.85;;;3.50;;
16403;SDS011;8311;50.158;8.642;2024-01-27T06:42:33;18.45;;;3.80;;
16403;SDS011;8311;50.158;8.642;2024-01-27T06:45:26;10.80;;;2.95;;
16403;SDS011;8311;50.158;8.642;2024-01-27T06:48:21;13.52;;;2.55;;
16403;SDS011;8311;50.158;8.642;2024-01-27T06:51:16;16.10;;;3.25;;
16403;SDS011;8311;50.158;8.642;2024-01-27T06:54:10;9.43;;;2.42;;
16403;SDS011;8311;50.158;8.642;2024-01-27T06:57:03;16.27;;;3.03;;
16403;SDS011;8311;50.158;8.642;2024-01-27T06:59:57;13.20;;;2.92;;
16403;SDS011;8311;50.158;8.642;2024-01-27T07:02:49;14.52;;;3.00;;
16403;SDS011;8311;50.158;8.642;2024-01-27T07:05:44;17.88;;;3.10;;
16403;SDS011;8311;50.158;8.642;2024-01-27T07:08:38;7.00;;;2.65;;
16403;SDS011;8311;50.158;8.642;2024-01-27T07:11:30;12.25;;;2.33;;
16403;SDS011;8311;50.158;8.642;2024-01-27T07:14:23;8.20;;;3.00;;
16403;SDS011;8311;50.158;8.642;2024-01-27T07:17:16;7.80;;;2.85;;
16403;SDS011;8311;50.158;8.642;2024-01-27T07:20:10;10.63;;;3.30;;
16403;SDS011;8311;50.158;8.642;2024-01-27T07:23:05;6.93;;;2.90;;
16403;SDS011;8311;50.158;8.642;2024-01-27T07:29:45;9.38;;;2.75;;
16403;SDS011;8311;50.158;8.642;2024-01-27T07:32:37;8.35;;;2.55;;
16403;SDS011;8311;50.158;8.642;2024-01-27T07:35:32;9.90;;;2.72;;
16403;SDS011;8311;50.158;8.642;2024-01-27T07:38:26;8.48;;;2.63;;
16403;SDS011;8311;50.158;8.642;2024-01-27T07:41:20;6.03;;;2.40;;
16403;SDS011;8311;50.158;8.642;2024-01-27T07:44:13;6.95;;;2.50;;
16403;SDS011;8311;50.158;8.642;2024-01-27T07:47:07;6.88;;;2.05;;
16403;SDS011;8311;50.158;8.642;2024-01-27T07:50:01;6.85;;;2.10;;
16403;SDS011;8311;50.158;8.642;2024-01-27T07:52:54;9.50;;;2.45;;
16403;SDS011;8311;50.158;8.642;2024-01-27T07:55:48;5.70;;;2.22;;
16403;SDS011;8311;50.158;8.642;2024-01-27T07:58:42;5.85;;;2.20;;
16403;SDS011;8311;50.158;8.642;2024-01-27T08:01:35;8.32;;;1.95;;
16403;SDS011;8311;50.158;8.642;2024-01-27T08:04:29;6.65;;;2.50;;
16403;SDS011;8311;50.158;8.642;2024-01-27T08:07:22;7.40;;;2.33;;
16403;SDS011;8311;50.158;8.642;2024-01-27T08:10:16;6.55;;;2.47;;
16403;SDS011;8311;50.158;8.642;2024-01-27T08:13:10;5.88;;;2.35;;
16403;SDS011;8311;50.158;8.642;2024-01-27T08:16:04;6.25;;;2.03;;
16403;SDS011;8311;50.158;8.642;2024-01-27T08:18:57;8.10;;;2.10;;
16403;SDS011;8311;50.158;8.642;2024-01-27T08:25:34;5.30;;;1.75;;
16403;SDS011;8311;50.158;8.642;2024-01-27T08:28:29;4.45;;;1.58;;
16403;SDS011;8311;50.158;8.642;2024-01-27T08:31:23;6.00;;;2.20;;
16403;SDS011;8311;50.158;8.642;2024-01-27T08:34:16;5.10;;;1.60;;
16403;SDS011;8311;50.158;8.642;2024-01-27T08:37:14;4.10;;;1.80;;
16403;SDS011;8311;50.158;8.642;2024-01-27T08:40:09;4.97;;;2.03;;
16403;SDS011;8311;50.158;8.642;2024-01-27T08:43:04;9.77;;;1.92;;
16403;SDS011;8311;50.158;8.642;2024-01-27T08:45:58;6.38;;;1.85;;
16403;SDS011;8311;50.158;8.642;2024-01-27T08:52:36;6.53;;;2.00;;
16403;SDS011;8311;50.158;8.642;2024-01-27T08:55:29;4.68;;;1.73;;
16403;SDS011;8311;50.158;8.642;2024-01-27T08:58:23;4.72;;;2.15;;
16403;SDS011;8311;50.158;8.642;2024-01-27T09:01:17;4.18;;;1.60;;
16403;SDS011;8311;50.158;8.642;2024-01-27T09:04:11;4.97;;;1.88;;
16403;SDS011;8311;50.158;8.642;2024-01-27T09:07:03;4.93;;;1.95;;
16403;SDS011;8311;50.158;8.642;2024-01-27T09:09:57;5.38;;;1.70;;
16403;SDS011;8311;50.158;8.642;2024-01-27T09:12:50;3.95;;;1.65;;
16403;SDS011;8311;50.158;8.642;2024-01-27T09:15:43;5.57;;;2.05;;
16403;SDS011;8311;50.158;8.642;2024-01-27T09:18:38;5.35;;;1.60;;
16403;SDS011;8311;50.158;8.642;2024-01-27T09:21:32;7.13;;;1.83;;
16403;SDS011;8311;50.158;8.642;2024-01-27T09:24:25;4.90;;;1.63;;
16403;SDS011;8311;50.158;8.642;2024-01-27T09:27:18;3.70;;;1.55;;
16403;SDS011;8311;50.158;8.642;2024-01-27T09:30:11;3.38;;;1.25;;
16403;SDS011;8311;50.158;8.642;2024-01-27T09:33:05;4.40;;;1.90;;
16403;SDS011;8311;50.158;8.642;2024-01-27T09:36:00;3.05;;;1.35;;
16403;SDS011;8311;50.158;8.642;2024-01-27T09:38:53;4.30;;;1.30;;
16403;SDS011;8311;50.158;8.642;2024-01-27T09:41:45;4.03;;;1.67;;
16403;SDS011;8311;50.158;8.642;2024-01-27T09:44:41;3.38;;;1.58;;
16403;SDS011;8311;50.158;8.642;2024-01-27T09:47:36;3.95;;;1.60;;
16403;SDS011;8311;50.158;8.642;2024-01-27T09:50:32;3.75;;;1.75;;
16403;SDS011;8311;50.158;8.642;2024-01-27T09:53:27;4.50;;;1.83;;
16403;SDS011;8311;50.158;8.642;2024-01-27T09:56:21;5.35;;;2.00;;
16403;SDS011;8311;50.158;8.642;2024-01-27T09:59:15;3.35;;;1.52;;
16403;SDS011;8311;50.158;8.642;2024-01-27T10:02:11;2.88;;;1.48;;
16403;SDS011;8311;50.158;8.642;2024-01-27T10:05:05;4.57;;;1.63;;
16403;SDS011;8311;50.158;8.642;2024-01-27T10:08:00;3.80;;;1.60;;
16403;SDS011;8311;50.158;8.642;2024-01-27T10:10:54;4.05;;;1.38;;
16403;SDS011;8311;50.158;8.642;2024-01-27T10:13:53;4.15;;;1.65;;
16403;SDS011;8311;50.158;8.642;2024-01-27T10:16:50;3.38;;;1.63;;
16403;SDS011;8311;50.158;8.642;2024-01-27T10:19:44;4.72;;;1.60;;
16403;SDS011;8311;50.158;8.642;2024-01-27T10:22:37;4.82;;;1.67;;
16403;SDS011;8311;50.158;8.642;2024-01-27T10:29:16;2.03;;;1.40;;
16403;SDS011;8311;50.158;8.642;2024-01-27T10:32:09;2.55;;;1.48;;
16403;SDS011;8311;50.158;8.642;2024-01-27T10:35:04;2.72;;;1.35;;
16403;SDS011;8311;50.158;8.642;2024-01-27T10:38:00;3.60;;;1.55;;
16403;SDS011;8311;50.158;8.642;2024-01-27T10:40:54;4.43;;;1.60;;
16403;SDS011;8311;50.158;8.642;2024-01-27T10:43:46;3.67;;;1.58;;
16403;SDS011;8311;50.158;8.642;2024-01-27T10:46:46;2.50;;;1.30;;
16403;SDS011;8311;50.158;8.642;2024-01-27T10:49:39;2.95;;;1.52;;
16403;SDS011;8311;50.158;8.642;2024-01-27T10:52:37;3.80;;;1.58;;
16403;SDS011;8311;50.158;8.642;2024-01-27T10:55:33;2.60;;;1.50;;
16403;SDS011;8311;50.158;8.642;2024-01-27T10:58:27;5.25;;;1.55;;
16403;SDS011;8311;50.158;8.642;2024-01-27T11:01:22;3.70;;;1.70;;
16403;SDS011;8311;50.158;8.642;2024-01-27T11:04:17;4.45;;;1.38;;
16403;SDS011;8311;50.158;8.642;2024-01-27T11:07:12;5.05;;;1.95;;
16403;SDS011;8311;50.158;8.642;2024-01-27T11:10:05;1.95;;;1.17;;
16403;SDS011;8311;50.158;8.642;2024-01-27T11:12:58;3.33;;;1.70;;
16403;SDS011;8311;50.158;8.642;2024-01-27T11:15:52;3.53;;;1.55;;
16403;SDS011;8311;50.158;8.642;2024-01-27T11:18:46;2.53;;;1.20;;
16403;SDS011;8311;50.158;8.642;2024-01-27T11:21:42;3.25;;;1.65;;
16403;SDS011;8311;50.158;8.642;2024-01-27T11:24:36;3.13;;;1.70;;
16403;SDS011;8311;50.158;8.642;2024-01-27T11:27:30;3.50;;;1.40;;
16403;SDS011;8311;50.158;8.642;2024-01-27T11:30:24;3.47;;;1.73;;
16403;SDS011;8311;50.158;8.642;2024-01-27T11:33:20;3.70;;;1.38;;
16403;SDS011;8311;50.158;8.642;2024-01-27T11:36:20;3.45;;;1.45;;
16403;SDS011;8311;50.158;8.642;2024-01-27T11:39:27;2.05;;;0.90;;
16403;SDS011;8311;50.158;8.642;2024-01-27T11:42:21;2.67;;;1.40;;
16403;SDS011;8311;50.158;8.642;2024-01-27T11:45:13;6.30;;;1.77;;
16403;SDS011;8311;50.158;8.642;2024-01-27T11:48:07;2.90;;;1.48;;
16403;SDS011;8311;50.158;8.642;2024-01-27T11:51:02;2.63;;;1.33;;
16403;SDS011;8311;50.158;8.642;2024-01-27T11:53:57;3.30;;;1.58;;
16403;SDS011;8311;50.158;8.642;2024-01-27T11:56:51;3.50;;;1.70;;
16403;SDS011;8311;50.158;8.642;2024-01-27T11:59:45;4.55;;;1.30;;
16403;SDS011;8311;50.158;8.642;2024-01-27T12:02:38;3.65;;;1.42;;
16403;SDS011;8311;50.158;8.642;2024-01-27T12:05:31;2.17;;;1.08;;
16403;SDS011;8311;50.158;8.642;2024-01-27T12:12:10;3.50;;;1.73;;
16403;SDS011;8311;50.158;8.642;2024-01-27T12:15:06;2.40;;;1.00;;
16403;SDS011;8311;50.158;8.642;2024-01-27T12:18:00;2.58;;;1.15;;
16403;SDS011;8311;50.158;8.642;2024-01-27T12:20:54;2.45;;;1.08;;
16403;SDS011;8311;50.158;8.642;2024-01-27T12:23:50;2.85;;;1.60;;
16403;SDS011;8311;50.158;8.642;2024-01-27T12:26:44;3.13;;;1.60;;
16403;SDS011;8311;50.158;8.642;2024-01-27T12:33:23;4.50;;;1.85;;
16403;SDS011;8311;50.158;8.642;2024-01-27T12:36:18;2.85;;;1.40;;
16403;SDS011;8311;50.158;8.642;2024-01-27T12:39:12;3.00;;;1.40;;
16403;SDS011;8311;50.158;8.642;2024-01-27T12:42:05;2.85;;;1.40;;
16403;SDS011;8311;50.158;8.642;2024-01-27T12:44:58;2.35;;;1.10;;
16403;SDS011;8311;50.158;8.642;2024-01-27T12:47:51;2.50;;;1.23;;
16403;SDS011;8311;50.158;8.642;2024-01-27T12:50:46;2.95;;;1.40;;
16403;SDS011;8311;50.158;8.642;2024-01-27T12:53:40;3.17;;;1.58;;
16403;SDS011;8311;50.158;8.642;2024-01-27T12:56:36;1.80;;;1.30;;
16403;SDS011;8311;50.158;8.642;2024-01-27T12:59:29;3.15;;;1.70;;
16403;SDS011;8311;50.158;8.642;2024-01-27T13:06:08;3.03;;;1.40;;
16403;SDS011;8311;50.158;8.642;2024-01-27T13:09:02;2.28;;;1.40;;
16403;SDS011;8311;50.158;8.642;2024-01-27T13:11:55;3.00;;;1.25;;
16403;SDS011;8311;50.158;8.642;2024-01-27T13:14:48;2.63;;;1.20;;
16403;SDS011;8311;50.158;8.642;2024-01-27T13:17:42;3.35;;;1.40;;
16403;SDS011;8311;50.158;8.642;2024-01-27T13:20:35;3.30;;;1.27;;
16403;SDS011;8311;50.158;8.642;2024-01-27T13:23:31;2.30;;;1.02;;
16403;SDS011;8311;50.158;8.642;2024-01-27T13:26:24;2.45;;;1.20;;
16403;SDS011;8311;50.158;8.642;2024-01-27T13:29:19;3.00;;;1.30;;
16403;SDS011;8311;50.158;8.642;2024-01-27T13:32:13;2.45;;;1.35;;
16403;SDS011;8311;50.158;8.642;2024-01-27T13:35:06;2.85;;;1.60;;
16403;SDS011;8311;50.158;8.642;2024-01-27T13:38:00;3.90;;;1.27;;
16403;SDS011;8311;50.158;8.642;2024-01-27T13:40:54;2.65;;;1.20;;
16403;SDS011;8311;50.158;8.642;2024-01-27T13:43:47;1.48;;;0.80;;
16403;SDS011;8311;50.158;8.642;2024-01-27T13:46:40;2.35;;;1.20;;
16403;SDS011;8311;50.158;8.642;2024-01-27T13:53:18;2.17;;;1.33;;
16403;SDS011;8311;50.158;8.642;2024-01-27T13:56:13;3.72;;;1.35;;
16403;SDS011;8311;50.158;8.642;2024-01-27T13:59:07;2.97;;;1.40;;
16403;SDS011;8311;50.158;8.642;2024-01-27T14:02:00;2.65;;;1.30;;
16403;SDS011;8311;50.158;8.642;2024-01-27T14:04:54;2.50;;;1.17;;
16403;SDS011;8311;50.158;8.642;2024-01-27T14:07:48;2.50;;;1.17;;
16403;SDS011;8311;50.158;8.642;2024-01-27T14:10:41;3.88;;;1.50;;
16403;SDS011;8311;50.158;8.642;2024-01-27T14:13:36;2.58;;;1.02;;
16403;SDS011;8311;50.158;8.642;2024-01-27T14:16:30;1.40;;;1.00;;
16403;SDS011;8311;50.158;8.642;2024-01-27T14:19:24;2.13;;;1.02;;
16403;SDS011;8311;50.158;8.642;2024-01-27T14:22:18;3.13;;;1.17;;
16403;SDS011;8311;50.158;8.642;2024-01-27T14:25:11;3.42;;;1.38;;
16403;SDS011;8311;50.158;8.642;2024-01-27T14:28:04;3.13;;;1.17;;
16403;SDS011;8311;50.158;8.642;2024-01-27T14:30:59;2.83;;;1.08;;
16403;SDS011;8311;50.158;8.642;2024-01-27T14:33:53;3.65;;;1.17;;
16403;SDS011;8311;50.158;8.642;2024-01-27T14:36:46;2.80;;;1.27;;
16403;SDS011;8311;50.158;8.642;2024-01-27T14:39:39;2.60;;;1.02;;
16403;SDS011;8311;50.158;8.642;2024-01-27T14:42:33;2.28;;;1.23;;
16403;SDS011;8311;50.158;8.642;2024-01-27T14:45:26;2.10;;;1.00;;
16403;SDS011;8311;50.158;8.642;2024-01-27T14:48:22;1.98;;;0.95;;
16403;SDS011;8311;50.158;8.642;2024-01-27T14:51:16;1.42;;;0.90;;
16403;SDS011;8311;50.158;8.642;2024-01-27T14:54:09;2.78;;;0.80;;
16403;SDS011;8311;50.158;8.642;2024-01-27T14:57:02;2.67;;;1.20;;
16403;SDS011;8311;50.158;8.642;2024-01-27T14:59:56;1.95;;;1.00;;
16403;SDS011;8311;50.158;8.642;2024-01-27T15:02:49;2.40;;;1.08;;
16403;SDS011;8311;50.158;8.642;2024-01-27T15:09:27;1.23;;;0.85;;
16403;SDS011;8311;50.158;8.642;2024-01-27T15:12:21;4.43;;;1.10;;
16403;SDS011;8311;50.158;8.642;2024-01-27T15:15:15;3.72;;;1.30;;
16403;SDS011;8311;50.158;8.642;2024-01-27T15:18:09;3.05;;;1.08;;
16403;SDS011;8311;50.158;8.642;2024-01-27T15:24:48;1.23;;;0.90;;
16403;SDS011;8311;50.158;8.642;2024-01-27T15:27:41;1.77;;;1.00;;
16403;SDS011;8311;50.158;8.642;2024-01-27T15:30:35;1.77;;;0.93;;
16403;SDS011;8311;50.158;8.642;2024-01-27T15:33:28;2.03;;;0.80;;
16403;SDS011;8311;50.158;8.642;2024-01-27T15:36:21;2.92;;;0.90;;
16403;SDS011;8311;50.158;8.642;2024-01-27T15:39:15;1.50;;;0.90;;
16403;SDS011;8311;50.158;8.642;2024-01-27T15:42:09;1.77;;;0.93;;
16403;SDS011;8311;50.158;8.642;2024-01-27T15:45:02;1.48;;;0.65;;
16403;SDS011;8311;50.158;8.642;2024-01-27T15:47:56;3.60;;;1.23;;
16403;SDS011;8311;50.158;8.642;2024-01-27T15:50:51;2.15;;;1.00;;
16403;SDS011;8311;50.158;8.642;2024-01-27T15:53:45;2.42;;;1.13;;
16403;SDS011;8311;50.158;8.642;2024-01-27T15:56:39;3.45;;;1.10;;
16403;SDS011;8311;50.158;8.642;2024-01-27T15:59:35;1.98;;;0.73;;
16403;SDS011;8311;50.158;8.642;2024-01-27T16:02:28;1.35;;;0.80;;
16403;SDS011;8311;50.158;8.642;2024-01-27T16:05:21;3.67;;;1.20;;
16403;SDS011;8311;50.158;8.642;2024-01-27T16:08:15;1.10;;;0.77;;
16403;SDS011;8311;50.158;8.642;2024-01-27T16:11:08;2.25;;;1.05;;
16403;SDS011;8311;50.158;8.642;2024-01-27T16:14:01;2.00;;;1.00;;
16403;SDS011;8311;50.158;8.642;2024-01-27T16:16:55;1.50;;;0.95;;
16403;SDS011;8311;50.158;8.642;2024-01-27T16:19:49;2.25;;;1.10;;
16403;SDS011;8311;50.158;8.642;2024-01-27T16:26:26;2.60;;;1.08;;
16403;SDS011;8311;50.158;8.642;2024-01-27T16:29:19;2.67;;;0.90;;
16403;SDS011;8311;50.158;8.642;2024-01-27T16:32:14;3.28;;;1.08;;
16403;SDS011;8311;50.158;8.642;2024-01-27T16:35:09;3.03;;;1.05;;
16403;SDS011;8311;50.158;8.642;2024-01-27T16:38:03;1.67;;;0.93;;
16403;SDS011;8311;50.158;8.642;2024-01-27T16:40:56;4.50;;;1.30;;
16403;SDS011;8311;50.158;8.642;2024-01-27T16:43:49;1.92;;;0.88;;
16403;SDS011;8311;50.158;8.642;2024-01-27T16:46:44;2.28;;;1.20;;
16403;SDS011;8311;50.158;8.642;2024-01-27T16:49:38;1.70;;;0.98;;
16403;SDS011;8311;50.158;8.642;2024-01-27T16:52:32;3.20;;;1.00;;
16403;SDS011;8311;50.158;8.642;2024-01-27T16:55:25;2.22;;;0.80;;
16403;SDS011;8311;50.158;8.642;2024-01-27T16:58:19;1.92;;;1.02;;
16403;SDS011;8311;50.158;8.642;2024-01-27T17:01:13;2.60;;;1.20;;
16403;SDS011;8311;50.158;8.642;2024-01-27T17:04:07;2.50;;;1.10;;
16403;SDS011;8311;50.158;8.642;2024-01-27T17:07:06;7.10;;;2.88;;
16403;SDS011;8311;50.158;8.642;2024-01-27T17:10:00;8.13;;;2.65;;
16403;SDS011;8311;50.158;8.642;2024-01-27T17:16:42;6.53;;;2.15;;
16403;SDS011;8311;50.158;8.642;2024-01-27T17:19:35;5.85;;;2.40;;
16403;SDS011;8311;50.158;8.642;2024-01-27T17:22:29;4.90;;;2.10;;
16403;SDS011;8311;50.158;8.642;2024-01-27T17:25:22;8.70;;;2.55;;
16403;SDS011;8311;50.158;8.642;2024-01-27T17:28:15;5.45;;;2.30;;
16403;SDS011;8311;50.158;8.642;2024-01-27T17:31:08;6.90;;;2.53;;
16403;SDS011;8311;50.158;8.642;2024-01-27T17:34:01;7.05;;;2.83;;
16403;SDS011;8311;50.158;8.642;2024-01-27T17:36:54;6.35;;;2.67;;
16403;SDS011;8311;50.158;8.642;2024-01-27T17:39:48;6.57;;;2.88;;
16403;SDS011;8311;50.158;8.642;2024-01-27T17:42:42;6.13;;;2.78;;
16403;SDS011;8311;50.158;8.642;2024-01-27T17:45:35;7.20;;;2.80;;
16403;SDS011;8311;50.158;8.642;2024-01-27T17:48:28;7.78;;;2.88;;
16403;SDS011;8311;50.158;8.642;2024-01-27T17:51:22;10.07;;;3.03;;
16403;SDS011;8311;50.158;8.642;2024-01-27T17:54:15;8.80;;;3.83;;
16403;SDS011;8311;50.158;8.642;2024-01-27T17:57:09;8.30;;;3.20;;
16403;SDS011;8311;50.158;8.642;2024-01-27T18:00:03;9.10;;;3.53;;
16403;SDS011;8311;50.158;8.642;2024-01-27T18:02:59;8.55;;;3.47;;
16403;SDS011;8311;50.158;8.642;2024-01-27T18:05:53;6.68;;;3.40;;
16403;SDS011;8311;50.158;8.642;2024-01-27T18:08:46;9.85;;;3.70;;
16403;SDS011;8311;50.158;8.642;2024-01-27T18:11:39;6.63;;;3.10;;
16403;SDS011;8311;50.158;8.642;2024-01-27T18:14:33;12.43;;;4.30;;
16403;SDS011;8311;50.158;8.642;2024-01-27T18:17:26;9.00;;;3.97;;
16403;SDS011;8311;50.158;8.642;2024-01-27T18:20:19;12.57;;;4.80;;
16403;SDS011;8311;50.158;8.642;2024-01-27T18:23:12;11.73;;;5.13;;
16403;SDS011;8311;50.158;8.642;2024-01-27T18:29:52;14.55;;;5.93;;
16403;SDS011;8311;50.158;8.642;2024-01-27T18:32:45;11.27;;;5.13;;
16403;SDS011;8311;50.158;8.642;2024-01-27T18:35:39;10.45;;;5.95;;
16403;SDS011;8311;50.158;8.642;2024-01-27T18:38:33;13.18;;;6.82;;
16403;SDS011;8311;50.158;8.642;2024-01-27T18:41:27;70.93;;;14.32;;
16403;SDS011;8311;50.158;8.642;2024-01-27T18:44:21;28.10;;;9.48;;
16403;SDS011;8311;50.158;8.642;2024-01-27T18:47:16;22.33;;;8.60;;
16403;SDS011;8311;50.158;8.642;2024-01-27T18:50:09;18.75;;;7.20;;
16403;SDS011;8311;50.158;8.642;2024-01-27T18:53:03;14.40;;;7.93;;
16403;SDS011;8311;50.158;8.642;2024-01-27T18:55:56;14.77;;;7.60;;
16403;SDS011;8311;50.158;8.642;2024-01-27T18:58:50;15.32;;;8.10;;
16403;SDS011;8311;50.158;8.642;2024-01-27T19:01:46;14.63;;;8.02;;
16403;SDS011;8311;50.158;8.642;2024-01-27T19:04:40;14.98;;;7.93;;